Terminal Aerodrome Forecast
Issued by NWS

Home | Current Version | Previous Version | Text Only | Print | Product List | Glossary On
Versions: 1 2 3 4 5 6 7 8 9 10 11 12 13 14 15
000
FTUS41 KBTV 221735
TAFMPV
TAF
KMPV 221735Z 2218/2318 33006KT P6SM SCT090
     FM222000 33006KT P6SM BKN080
     FM230000 36004KT P6SM SCT080
     FM231000 00000KT 2SM BR SCT003
     FM231200 VRB03KT 6SM BR SCT050=

USA.gov is the U.S. government's official web portal to all federal, state and local government web resources and services.